createdAt,value
2019-02-22T00:04:14.912Z,-25.08
2019-02-22T00:06:41.270Z,-25.09
2019-02-22T00:12:14.856Z,-25.14
2019-02-22T00:14:41.098Z,-25.11
2019-02-22T00:17:07.336Z,-25.14
2019-02-22T00:19:33.564Z,-25.16
2019-02-22T00:21:59.804Z,-25.23
2019-02-22T00:24:26.027Z,-25.29
2019-02-22T00:26:52.274Z,-25.36
2019-02-22T00:29:18.504Z,-25.44
2019-02-22T00:31:44.766Z,-25.41
2019-02-22T00:34:11.042Z,-25.32
2019-02-22T00:36:37.376Z,-25.26
2019-02-22T00:42:17.447Z,-25.23
2019-02-22T00:44:43.696Z,-25.30
2019-02-22T00:47:09.930Z,-25.33
2019-02-22T00:49:36.151Z,-25.35
2019-02-22T00:52:02.406Z,-25.39
2019-02-22T00:54:28.633Z,-25.48
2019-02-22T00:56:54.880Z,-25.47
2019-02-22T00:59:21.104Z,-25.44
2019-02-22T01:01:47.357Z,-25.46
2019-02-22T01:04:13.587Z,-25.46
2019-02-22T01:06:39.830Z,-25.49
2019-02-22T01:09:06.160Z,-25.52
2019-02-22T01:11:32.395Z,-25.54
2019-02-22T01:13:58.627Z,-25.54
2019-02-22T01:16:24.855Z,-25.55
2019-02-22T01:18:51.137Z,-25.53
2019-02-22T01:21:17.360Z,-25.51
2019-02-22T01:23:43.588Z,-25.54
2019-02-22T01:26:09.831Z,-25.55
2019-02-22T01:28:36.083Z,-25.55
2019-02-22T01:31:02.314Z,-25.56
2019-02-22T01:33:28.560Z,-25.57
2019-02-22T01:35:54.787Z,-25.58
2019-02-22T01:38:21.029Z,-25.53
2019-02-22T01:40:47.287Z,-25.53
2019-02-22T01:43:13.526Z,-25.53
2019-02-22T01:45:39.751Z,-25.52
2019-02-22T01:48:06.003Z,-25.47
2019-02-22T01:50:32.239Z,-25.43
2019-02-22T01:52:58.496Z,-25.44
2019-02-22T01:55:24.725Z,-25.47
2019-02-22T01:57:50.973Z,-25.49
2019-02-22T02:00:17.203Z,-25.48
2019-02-22T02:02:43.440Z,-25.48
2019-02-22T02:05:09.669Z,-25.47
2019-02-22T02:07:35.892Z,-25.41
2019-02-22T02:12:55.974Z,-25.39
2019-02-22T02:15:22.205Z,-25.40
2019-02-22T02:17:48.454Z,-25.43
2019-02-22T02:20:14.732Z,-25.46
2019-02-22T02:22:40.939Z,-25.43
2019-02-22T02:25:48.483Z,-25.42
2019-02-22T02:28:14.721Z,-25.44
2019-02-22T02:30:40.960Z,-25.52
2019-02-22T02:33:07.195Z,-25.48
2019-02-22T02:35:33.420Z,-25.46
2019-02-22T02:37:59.668Z,-25.47
2019-02-22T02:40:25.922Z,-25.37
2019-02-22T02:42:52.146Z,-25.28
2019-02-22T02:45:18.393Z,-25.31
2019-02-22T02:47:44.614Z,-25.37
2019-02-22T02:50:52.172Z,-25.42
2019-02-22T02:53:18.423Z,-25.48
2019-02-22T02:55:44.668Z,-25.51
2019-02-22T02:58:10.929Z,-25.52
2019-02-22T03:03:11.094Z,-25.55
2019-02-22T03:06:18.648Z,-25.61
2019-02-22T03:08:44.880Z,-25.63
2019-02-22T03:11:20.146Z,-25.58
2019-02-22T03:13:39.260Z,-25.57
2019-02-22T03:16:05.500Z,-25.56
2019-02-22T03:18:31.728Z,-25.62
2019-02-22T03:20:57.979Z,-25.65
2019-02-22T03:23:24.201Z,-26.09
2019-02-22T03:25:50.442Z,-25.57
2019-02-22T03:28:16.667Z,-25.54
2019-02-22T03:30:42.924Z,-25.52
2019-02-22T03:33:09.149Z,-25.50
2019-02-22T03:35:35.392Z,-25.50
2019-02-22T03:38:01.620Z,-25.49
2019-02-22T03:40:27.875Z,-25.46
2019-02-22T03:42:54.082Z,-25.47
2019-02-22T03:45:20.326Z,-25.51
2019-02-22T03:47:46.657Z,-25.55
2019-02-22T03:50:12.937Z,-25.56
2019-02-22T03:52:58.909Z,-25.54
2019-02-22T03:55:25.155Z,-25.58
2019-02-22T03:57:51.389Z,-25.59
2019-02-22T04:00:17.640Z,-25.57
2019-02-22T04:02:43.889Z,-25.53
2019-02-22T04:05:10.103Z,-25.54
2019-02-22T04:07:36.344Z,-25.53
2019-02-22T04:10:43.895Z,-25.59
2019-02-22T04:13:10.123Z,-25.57
2019-02-22T04:15:36.375Z,-25.52
2019-02-22T04:18:02.744Z,-25.53
2019-02-22T04:20:28.985Z,-25.48
2019-02-22T04:22:55.229Z,-25.45
2019-02-22T04:25:21.464Z,-25.29
2019-02-22T04:27:47.702Z,-25.03
2019-02-22T04:30:14.023Z,-25.13
2019-02-22T04:32:40.259Z,-25.24
2019-02-22T04:35:06.483Z,-25.19
2019-02-22T04:37:32.726Z,-25.23
2019-02-22T04:39:58.957Z,-25.30
2019-02-22T04:42:25.200Z,-25.38
2019-02-22T04:44:51.430Z,-25.15
2019-02-22T04:47:17.686Z,-24.98
2019-02-22T04:49:43.919Z,-24.84
2019-02-22T04:52:10.155Z,-24.64
2019-02-22T04:54:36.399Z,-24.61
2019-02-22T04:57:02.640Z,-24.77
2019-02-22T04:59:28.873Z,-25.02
2019-02-22T05:01:55.113Z,-25.17
2019-02-22T05:04:21.443Z,-25.26
2019-02-22T05:06:47.697Z,-25.35
2019-02-22T05:09:13.935Z,-25.38
2019-02-22T05:11:40.213Z,-25.31
2019-02-22T05:14:06.440Z,-24.99
2019-02-22T05:16:32.672Z,-24.84
2019-02-22T05:18:58.911Z,-24.80
2019-02-22T05:21:25.136Z,-24.65
2019-02-22T05:23:51.378Z,-24.54
2019-02-22T05:26:17.615Z,-24.45
2019-02-22T05:28:43.851Z,-24.40
2019-02-22T05:31:10.075Z,-24.31
2019-02-22T05:33:36.325Z,-24.25
2019-02-22T05:36:02.552Z,-24.32
2019-02-22T05:38:28.792Z,-24.29
2019-02-22T05:40:55.024Z,-24.27
2019-02-22T05:43:21.261Z,-24.38
2019-02-22T05:45:47.495Z,-24.36
2019-02-22T05:48:13.735Z,-24.29
2019-02-22T05:50:39.994Z,-24.44
2019-02-22T05:53:06.229Z,-24.62
2019-02-22T05:55:32.454Z,-24.64
2019-02-22T05:57:58.702Z,-24.47
2019-02-22T06:00:24.940Z,-24.33
2019-02-22T06:02:51.177Z,-24.24
2019-02-22T06:05:17.410Z,-24.33
2019-02-22T06:07:43.634Z,-24.35
2019-02-22T06:10:51.178Z,-24.47
2019-02-22T06:13:17.436Z,-24.67
2019-02-22T06:15:43.670Z,-24.74
2019-02-22T06:21:04.281Z,-24.84
2019-02-22T06:23:30.525Z,-24.86
2019-02-22T06:25:56.756Z,-24.96
2019-02-22T06:28:23.043Z,-24.77
2019-02-22T06:30:49.349Z,-24.63
2019-02-22T06:33:15.576Z,-24.67
2019-02-22T06:35:41.813Z,-24.65
2019-02-22T06:38:08.034Z,-24.67
2019-02-22T06:40:34.276Z,-24.68
2019-02-22T06:43:00.491Z,-24.62
2019-02-22T06:45:26.729Z,-24.54
2019-02-22T06:47:52.953Z,-24.46
2019-02-22T06:50:19.200Z,-24.50
2019-02-22T06:52:45.437Z,-24.50
2019-02-22T06:55:11.672Z,-24.47
2019-02-22T06:57:37.903Z,-24.37
2019-02-22T07:00:23.892Z,-24.26
2019-02-22T07:02:50.133Z,-24.19
2019-02-22T07:05:16.376Z,-24.16
2019-02-22T07:07:42.628Z,-24.08
2019-02-22T07:10:50.173Z,-23.99
2019-02-22T07:13:16.417Z,-23.81
2019-02-22T07:15:42.652Z,-23.34
2019-02-22T07:18:08.996Z,-22.96
2019-02-22T07:20:35.210Z,-22.58
2019-02-22T07:23:01.455Z,-22.48
2019-02-22T07:25:27.697Z,-22.49
2019-02-22T07:27:53.934Z,-22.37
2019-02-22T07:30:20.164Z,-22.22
2019-02-22T07:32:46.434Z,-21.80
2019-02-22T07:35:14.249Z,-21.52
2019-02-22T07:37:40.767Z,-21.34
2019-02-22T07:40:07.116Z,-21.19
2019-02-22T07:42:33.342Z,-21.04
2019-02-22T07:44:59.572Z,-20.70
2019-02-22T07:47:25.811Z,-20.45
2019-02-22T07:49:52.048Z,-20.25
2019-02-22T07:52:18.290Z,-20.10
2019-02-22T07:54:44.524Z,-19.97
2019-02-22T07:57:10.765Z,-19.91
2019-02-22T07:59:36.988Z,-19.79
2019-02-22T08:04:56.924Z,-19.23
2019-02-22T08:07:23.159Z,-18.94
2019-02-22T08:09:49.379Z,-18.67
2019-02-22T08:12:15.620Z,-18.37
2019-02-22T08:14:41.849Z,-18.16
2019-02-22T08:17:08.099Z,-18.05
2019-02-22T08:19:34.338Z,-17.73
2019-02-22T08:22:03.337Z,-17.51
2019-02-22T08:24:28.691Z,-17.31
2019-02-22T08:26:54.931Z,-17.16
2019-02-22T08:29:21.174Z,-17.05
2019-02-22T08:31:47.424Z,-16.93
2019-02-22T08:34:13.655Z,-16.84
2019-02-22T08:36:39.895Z,-16.73
2019-02-22T08:39:06.127Z,-16.59
2019-02-22T08:41:32.369Z,-16.42
2019-02-22T08:43:58.591Z,-16.27
2019-02-22T08:46:24.817Z,-16.01
2019-02-22T08:48:51.047Z,-15.66
2019-02-22T08:51:17.279Z,-15.20
2019-02-22T08:53:43.524Z,-14.57
2019-02-22T08:56:09.743Z,-14.09
2019-02-22T08:58:35.975Z,-13.19
2019-02-22T09:01:02.204Z,-12.80
2019-02-22T09:03:28.443Z,-12.42
2019-02-22T09:05:54.664Z,-11.83
2019-02-22T09:08:20.899Z,-11.37
2019-02-22T09:10:47.131Z,-10.80
2019-02-22T09:13:13.385Z,-10.45
2019-02-22T09:15:39.608Z,-10.15
2019-02-22T09:18:05.840Z,-9.90
2019-02-22T09:20:32.075Z,-9.45
2019-02-22T09:22:58.314Z,-8.88
2019-02-22T09:25:24.643Z,-8.61
2019-02-22T09:27:50.880Z,-8.25
2019-02-22T09:30:17.107Z,-7.89
2019-02-22T09:32:43.353Z,-7.62
2019-02-22T09:35:50.888Z,-7.22
2019-02-22T09:38:17.132Z,-7.11
2019-02-22T09:40:43.368Z,-6.61
2019-02-22T09:43:09.618Z,-6.39
2019-02-22T09:45:35.852Z,-6.05
2019-02-22T09:48:02.097Z,-5.67
2019-02-22T09:50:28.331Z,-5.37
2019-02-22T09:52:54.573Z,-4.97
2019-02-22T09:55:20.812Z,-4.66
2019-02-22T09:57:47.067Z,-4.40
2019-02-22T10:00:54.620Z,-4.01
2019-02-22T10:03:20.837Z,-3.75
2019-02-22T10:05:47.092Z,-3.63
2019-02-22T10:08:13.324Z,-3.43
2019-02-22T10:10:39.563Z,-3.30
2019-02-22T10:13:05.807Z,-3.21
2019-02-22T10:15:32.043Z,-2.98
2019-02-22T10:17:58.273Z,-2.89
2019-02-22T10:20:24.508Z,-2.87
2019-02-22T10:22:50.736Z,-2.81
2019-02-22T10:25:16.976Z,-2.75
2019-02-22T10:27:43.203Z,-2.59
2019-02-22T10:30:50.741Z,-2.36
2019-02-22T10:33:16.968Z,-2.20
2019-02-22T10:35:43.214Z,-2.03
2019-02-22T10:38:09.436Z,-1.90
2019-02-22T10:40:35.685Z,-1.75
2019-02-22T10:43:01.916Z,-1.77
2019-02-22T10:45:28.149Z,-1.76
2019-02-22T10:47:54.375Z,-1.67
2019-02-22T10:50:20.611Z,-1.62
2019-02-22T10:52:47.069Z,-1.52
2019-02-22T10:55:13.293Z,-1.51
2019-02-22T10:57:39.520Z,-1.60
2019-02-22T11:00:47.121Z,-1.62
2019-02-22T11:03:13.387Z,-1.50
2019-02-22T11:05:39.619Z,-1.41
2019-02-22T11:08:05.857Z,-1.42
2019-02-22T11:10:32.089Z,-1.35
2019-02-22T11:12:58.315Z,-1.24
2019-02-22T11:15:24.562Z,-1.20
2019-02-22T11:17:50.789Z,-1.27
2019-02-22T11:20:17.052Z,-1.31
2019-02-22T11:22:43.280Z,-1.29
2019-02-22T11:25:29.277Z,-1.26
2019-02-22T11:27:55.509Z,-1.24
2019-02-22T11:30:21.750Z,-1.21
2019-02-22T11:32:48.095Z,-1.11
2019-02-22T11:35:14.324Z,-1.07
2019-02-22T11:37:40.554Z,-1.00
2019-02-22T11:40:48.129Z,-0.91
2019-02-22T11:43:14.322Z,-0.89
2019-02-22T11:45:40.578Z,-1.00
2019-02-22T11:48:09.413Z,-1.12
2019-02-22T11:50:34.960Z,-1.19
2019-02-22T11:53:01.206Z,-1.25
2019-02-22T11:55:27.541Z,-1.24
2019-02-22T11:57:53.776Z,-1.25
2019-02-22T12:00:39.783Z,-1.24
2019-02-22T12:03:21.207Z,-1.28
2019-02-22T12:05:34.152Z,-1.33
2019-02-22T12:08:00.406Z,-1.97
2019-02-22T12:10:26.640Z,-1.37
2019-02-22T12:12:52.891Z,-1.37
2019-02-22T12:15:19.128Z,-1.36
2019-02-22T12:17:45.381Z,-1.42
2019-02-22T12:20:11.620Z,-1.46
2019-02-22T12:22:37.869Z,-1.48
2019-02-22T12:25:45.408Z,-1.54
2019-02-22T12:28:11.653Z,-1.57
2019-02-22T12:30:37.885Z,-1.57
2019-02-22T12:33:04.224Z,-1.56
2019-02-22T12:38:37.804Z,-1.63
2019-02-22T12:41:04.153Z,-1.58
2019-02-22T12:43:30.405Z,-1.54
2019-02-22T12:45:56.637Z,-1.50
2019-02-22T12:48:22.889Z,-1.49
2019-02-22T12:50:49.137Z,-1.46
2019-02-22T12:53:15.379Z,-1.41
2019-02-22T12:55:41.605Z,-1.42
2019-02-22T12:58:07.858Z,-1.44
2019-02-22T13:00:34.070Z,-1.43
2019-02-22T13:03:02.335Z,-1.45
2019-02-22T13:08:42.282Z,-1.39
2019-02-22T13:11:08.511Z,-1.43
2019-02-22T13:13:34.763Z,-1.42
2019-02-22T13:16:00.991Z,-1.42
2019-02-22T13:18:27.240Z,-1.42
2019-02-22T13:20:53.463Z,-1.40
2019-02-22T13:23:19.703Z,-1.39
2019-02-22T13:25:45.927Z,-1.42
2019-02-22T13:28:12.180Z,-1.42
2019-02-22T13:30:38.412Z,-1.45
2019-02-22T13:33:04.643Z,-1.48
2019-02-22T13:35:30.874Z,-1.56
2019-02-22T13:37:57.108Z,-1.62
2019-02-22T13:40:23.354Z,-1.59
2019-02-22T13:42:49.576Z,-1.54
2019-02-22T13:45:26.244Z,-1.57
2019-02-22T13:47:43.971Z,-1.56
2019-02-22T13:50:29.968Z,-1.58
2019-02-22T13:52:56.219Z,-1.54
2019-02-22T13:55:22.461Z,-1.54
2019-02-22T13:57:48.693Z,-1.57
2019-02-22T14:00:56.251Z,-1.56
2019-02-22T14:03:22.484Z,-1.54
2019-02-22T14:05:48.719Z,-1.52
2019-02-22T14:08:14.947Z,-1.56
2019-02-22T14:10:41.192Z,-1.62
2019-02-22T14:13:07.422Z,-1.64
2019-02-22T14:15:38.094Z,-1.63
2019-02-22T14:18:01.805Z,-1.63
2019-02-22T14:20:28.047Z,-1.73
2019-02-22T14:22:54.291Z,-1.72
2019-02-22T14:25:20.539Z,-1.73
2019-02-22T14:27:46.767Z,-1.76
2019-02-22T14:30:54.313Z,-1.79
2019-02-22T14:33:20.580Z,-1.82
2019-02-22T14:35:46.820Z,-1.85
2019-02-22T14:38:13.039Z,-1.87
2019-02-22T14:40:39.280Z,-1.88
2019-02-22T14:43:15.818Z,-1.89
2019-02-22T14:45:33.660Z,-1.92
2019-02-22T14:47:59.902Z,-1.93
2019-02-22T14:50:26.146Z,-1.93
2019-02-22T14:52:52.387Z,-1.96
2019-02-22T14:55:18.647Z,-1.99
2019-02-22T14:57:45.455Z,-2.00
2019-02-22T15:03:13.484Z,-2.05
2019-02-22T15:05:39.724Z,-2.09
2019-02-22T15:08:05.953Z,-2.09
2019-02-22T15:13:26.327Z,-2.14
2019-02-22T15:16:12.326Z,-2.16
2019-02-22T15:18:38.573Z,-2.16
2019-02-22T15:21:04.811Z,-2.15
2019-02-22T15:23:31.046Z,-2.16
2019-02-22T15:25:57.284Z,-2.16
2019-02-22T15:28:23.508Z,-2.17
2019-02-22T15:30:49.764Z,-2.20
2019-02-22T15:33:15.974Z,-2.25
2019-02-22T15:35:42.196Z,-2.31
2019-02-22T15:38:10.073Z,-2.32
2019-02-22T15:40:39.210Z,-2.33
2019-02-22T15:43:04.809Z,-2.36
2019-02-22T15:45:31.065Z,-2.37
2019-02-22T15:47:57.251Z,-2.39
2019-02-22T15:50:23.479Z,-2.39
2019-02-22T15:55:23.541Z,-2.39
2019-02-22T15:57:49.797Z,-2.40
2019-02-22T16:00:35.788Z,-2.39
2019-02-22T16:03:02.033Z,-2.38
2019-02-22T16:05:48.020Z,-2.37
2019-02-22T16:08:14.265Z,-2.37
2019-02-22T16:10:40.492Z,-2.38
2019-02-22T16:13:06.737Z,-2.39
2019-02-22T16:15:33.081Z,-2.37
2019-02-22T16:17:59.324Z,-2.35
2019-02-22T16:20:25.558Z,-2.36
2019-02-22T16:22:51.807Z,-2.35
2019-02-22T16:25:19.999Z,-2.34
2019-02-22T16:27:46.207Z,-2.35
2019-02-22T16:30:53.747Z,-2.35
2019-02-22T16:33:20.003Z,-2.37
2019-02-22T16:35:46.240Z,-2.36
2019-02-22T16:38:12.481Z,-2.34
2019-02-22T16:40:38.710Z,-2.33
2019-02-22T16:43:04.951Z,-2.32
2019-02-22T16:45:31.193Z,-2.31
2019-02-22T16:47:57.441Z,-2.32
2019-02-22T16:50:23.669Z,-2.31
2019-02-22T16:52:49.923Z,-2.29
2019-02-22T16:55:16.161Z,-2.31
2019-02-22T16:57:42.486Z,-2.31
2019-02-22T17:00:50.043Z,-2.33
2019-02-22T17:03:16.286Z,-2.34
2019-02-22T17:05:42.532Z,-2.26
2019-02-22T17:08:08.755Z,-2.23
2019-02-22T17:10:34.999Z,-2.24
2019-02-22T17:13:01.234Z,-2.24
2019-02-22T17:15:27.475Z,-2.25
2019-02-22T17:17:53.702Z,-2.28
2019-02-22T17:20:19.943Z,-2.29
2019-02-22T17:22:46.165Z,-2.27
2019-02-22T17:25:32.154Z,-2.26
2019-02-22T17:27:58.386Z,-2.27
2019-02-22T17:30:24.631Z,-2.23
2019-02-22T17:32:50.858Z,-2.20
2019-02-22T17:35:17.099Z,-2.18
2019-02-22T17:37:43.329Z,-2.18
2019-02-22T17:40:50.877Z,-2.19
2019-02-22T17:43:17.109Z,-2.18
2019-02-22T17:45:43.341Z,-2.20
2019-02-22T17:48:09.570Z,-2.20
2019-02-22T17:50:35.806Z,-2.17
2019-02-22T17:53:02.050Z,-2.17
2019-02-22T17:55:28.291Z,-2.17
2019-02-22T17:57:54.524Z,-2.14
2019-02-22T18:02:58.449Z,-2.16
2019-02-22T18:05:24.687Z,-2.16
2019-02-22T18:07:50.921Z,-2.16
2019-02-22T18:10:17.165Z,-2.17
2019-02-22T18:12:43.406Z,-2.17
2019-02-22T18:15:50.963Z,-2.15
2019-02-22T18:18:17.204Z,-2.16
2019-02-22T18:20:43.450Z,-2.15
2019-02-22T18:23:09.687Z,-2.18
2019-02-22T18:25:35.923Z,-2.17
2019-02-22T18:28:02.159Z,-2.19
2019-02-22T18:30:28.402Z,-2.19
2019-02-22T18:32:54.640Z,-2.18
2019-02-22T18:35:20.879Z,-2.19
2019-02-22T18:37:47.105Z,-2.18
2019-02-22T18:40:54.655Z,-2.20
2019-02-22T18:43:20.895Z,-2.23
2019-02-22T18:45:47.145Z,-2.26
2019-02-22T18:48:13.369Z,-2.26
2019-02-22T18:50:39.615Z,-2.24
2019-02-22T18:53:05.864Z,-2.23
2019-02-22T18:55:32.117Z,-2.20
2019-02-22T18:57:58.345Z,-2.21
2019-02-22T19:00:24.583Z,-2.18
2019-02-22T19:02:50.839Z,-2.18
2019-02-22T19:05:17.050Z,-2.18
2019-02-22T19:07:43.290Z,-2.16
2019-02-22T19:13:22.752Z,-2.12
2019-02-22T19:15:48.978Z,-2.11
2019-02-22T19:18:15.248Z,-2.13
2019-02-22T19:20:41.476Z,-2.13
2019-02-22T19:23:07.719Z,-2.10
2019-02-22T19:25:33.964Z,-2.06
2019-02-22T19:28:00.203Z,-2.03
2019-02-22T19:30:26.431Z,-2.03
2019-02-22T19:32:52.676Z,-1.97
2019-02-22T19:35:18.897Z,-1.98
2019-02-22T19:37:45.140Z,-1.97
2019-02-22T19:43:24.816Z,-1.95
2019-02-22T19:45:51.060Z,-1.92
2019-02-22T19:48:17.302Z,-1.92
2019-02-22T19:50:43.535Z,-1.90
2019-02-22T19:53:09.803Z,-1.88
2019-02-22T19:55:36.041Z,-1.87
2019-02-22T19:58:02.281Z,-1.87
2019-02-22T20:00:28.503Z,-1.86
2019-02-22T20:02:54.741Z,-1.84
2019-02-22T20:05:20.968Z,-1.83
2019-02-22T20:07:47.226Z,-1.82
2019-02-22T20:13:27.279Z,-1.83
2019-02-22T20:15:53.515Z,-1.80
2019-02-22T20:18:19.767Z,-1.80
2019-02-22T20:20:46.023Z,-1.80
2019-02-22T20:23:12.255Z,-1.81
2019-02-22T20:25:38.481Z,-1.80
2019-02-22T20:28:04.715Z,-1.78
2019-02-22T20:30:30.960Z,-1.76
2019-02-22T20:32:57.203Z,-1.77
2019-02-22T20:36:04.741Z,-1.77
2019-02-22T20:38:30.984Z,-1.78
2019-02-22T20:40:57.214Z,-1.80
2019-02-22T20:43:23.457Z,-1.80
2019-02-22T20:45:49.684Z,-1.86
2019-02-22T20:48:15.944Z,-1.89
2019-02-22T20:50:42.184Z,-1.91
2019-02-22T20:53:08.445Z,-1.91
2019-02-22T20:55:34.671Z,-1.95
2019-02-22T20:58:00.897Z,-1.96
2019-02-22T21:01:14.738Z,-1.97
2019-02-22T21:03:36.592Z,-1.99
2019-02-22T21:06:02.834Z,-1.95
2019-02-22T21:08:29.088Z,-2.02
2019-02-22T21:10:55.319Z,-2.11
2019-02-22T21:13:21.590Z,-2.10
2019-02-22T21:15:48.078Z,-2.03
2019-02-22T21:18:16.693Z,-2.00
2019-02-22T21:20:44.135Z,-1.98
2019-02-22T21:23:10.368Z,-1.98
2019-02-22T21:25:36.612Z,-1.97
2019-02-22T21:28:02.848Z,-1.95
2019-02-22T21:30:29.084Z,-1.98
2019-02-22T21:32:55.318Z,-1.97
2019-02-22T21:35:21.565Z,-2.00
2019-02-22T21:37:47.790Z,-2.07
2019-02-22T21:40:14.023Z,-2.13
2019-02-22T21:42:40.260Z,-2.10
2019-02-22T21:45:48.087Z,-2.09
2019-02-22T21:48:14.349Z,-2.09
2019-02-22T21:50:40.592Z,-2.08
2019-02-22T21:53:06.834Z,-2.09
2019-02-22T21:55:33.076Z,-2.10
2019-02-22T21:57:59.300Z,-2.10
2019-02-22T22:01:06.856Z,-2.09
2019-02-22T22:03:33.091Z,-2.04
2019-02-22T22:05:59.336Z,-1.97
2019-02-22T22:08:25.571Z,-1.94
2019-02-22T22:10:51.813Z,-1.95
2019-02-22T22:13:18.058Z,-1.96
2019-02-22T22:15:44.312Z,-1.96
2019-02-22T22:18:10.549Z,-1.90
2019-02-22T22:20:36.791Z,-1.86
2019-02-22T22:23:03.027Z,-1.86
2019-02-22T22:25:29.268Z,-1.84
2019-02-22T22:27:55.494Z,-1.85
2019-02-22T22:30:21.721Z,-1.88
2019-02-22T22:32:47.957Z,-1.79
2019-02-22T22:35:55.508Z,-1.79
2019-02-22T22:38:21.741Z,-1.77
2019-02-22T22:40:54.788Z,-1.76
2019-02-22T22:43:21.016Z,-1.71
2019-02-22T22:45:47.282Z,-1.67
2019-02-22T22:48:13.525Z,-1.51
2019-02-22T22:50:39.760Z,-1.48
2019-02-22T22:53:05.999Z,-1.44
2019-02-22T22:55:32.222Z,-1.40
2019-02-22T22:57:58.450Z,-1.45
2019-02-22T23:03:38.445Z,-1.43
2019-02-22T23:06:04.722Z,-1.34
2019-02-22T23:08:30.917Z,-1.34
2019-02-22T23:10:57.141Z,-1.36
2019-02-22T23:13:23.490Z,-1.40
2019-02-22T23:15:49.735Z,-1.38
2019-02-22T23:18:15.982Z,-1.39
2019-02-22T23:20:42.205Z,-1.28
2019-02-22T23:23:08.448Z,-1.33
2019-02-22T23:25:34.675Z,-1.35
2019-02-22T23:28:00.911Z,-1.41
2019-02-22T23:30:27.143Z,-1.45
2019-02-22T23:32:53.383Z,-1.47
2019-02-22T23:35:19.612Z,-1.43
2019-02-22T23:37:45.857Z,-1.45
2019-02-22T23:43:19.450Z,-1.40
2019-02-22T23:45:45.680Z,-1.40
2019-02-22T23:48:11.917Z,-1.36
2019-02-22T23:50:38.144Z,-1.36
2019-02-22T23:53:04.402Z,-1.37
2019-02-22T23:55:30.636Z,-1.35
2019-02-22T23:57:56.878Z,-1.31
